sensor_id;sensor_type;location;lat;lon;timestamp;P1;durP1;ratioP1;P2;durP2;ratioP2
31724;SDS011;18306;40.960;14.836;2022-10-16T09:59:14;13.55;;;6.50;;
31724;SDS011;18306;40.960;14.836;2022-10-16T10:01:45;8.70;;;5.85;;
31724;SDS011;18306;40.960;14.836;2022-10-16T10:04:20;7.63;;;4.90;;
31724;SDS011;18306;40.960;14.836;2022-10-16T10:06:50;7.57;;;5.28;;
31724;SDS011;18306;40.960;14.836;2022-10-16T10:09:23;9.27;;;5.05;;
31724;SDS011;18306;40.960;14.836;2022-10-16T10:12:03;6.43;;;3.80;;
31724;SDS011;18306;40.960;14.836;2022-10-16T10:14:47;6.07;;;4.40;;
31724;SDS011;18306;40.960;14.836;2022-10-16T10:17:20;7.70;;;4.38;;
31724;SDS011;18306;40.960;14.836;2022-10-16T10:19:50;6.40;;;3.85;;
31724;SDS011;18306;40.960;14.836;2022-10-16T10:22:23;5.38;;;3.60;;
31724;SDS011;18306;40.960;14.836;2022-10-16T10:24:56;4.38;;;2.83;;
31724;SDS011;18306;40.960;14.836;2022-10-16T10:46:51;5.78;;;3.25;;
31724;SDS011;18306;40.960;14.836;2022-10-16T11:07:24;7.53;;;4.03;;
31724;SDS011;18306;40.960;14.836;2022-10-16T11:10:05;5.95;;;2.75;;
31724;SDS011;18306;40.960;14.836;2022-10-16T11:12:46;4.75;;;3.40;;
31724;SDS011;18306;40.960;14.836;2022-10-16T11:15:20;6.88;;;3.15;;
31724;SDS011;18306;40.960;14.836;2022-10-16T11:17:53;5.75;;;4.15;;
31724;SDS011;18306;40.960;14.836;2022-10-16T11:21:06;4.38;;;2.80;;
31724;SDS011;18306;40.960;14.836;2022-10-16T11:23:36;5.07;;;3.17;;
31724;SDS011;18306;40.960;14.836;2022-10-16T11:26:16;7.85;;;3.10;;
31724;SDS011;18306;40.960;14.836;2022-10-16T11:28:54;4.45;;;3.00;;
31724;SDS011;18306;40.960;14.836;2022-10-16T11:31:28;4.78;;;2.65;;
31724;SDS011;18306;40.960;14.836;2022-10-16T11:36:57;4.55;;;2.35;;
31724;SDS011;18306;40.960;14.836;2022-10-16T11:39:34;3.22;;;2.58;;
31724;SDS011;18306;40.960;14.836;2022-10-16T11:42:11;3.38;;;2.50;;
31724;SDS011;18306;40.960;14.836;2022-10-16T11:45:00;7.20;;;4.10;;
31724;SDS011;18306;40.960;14.836;2022-10-16T11:48:05;4.78;;;2.40;;
31724;SDS011;18306;40.960;14.836;2022-10-16T11:50:53;3.40;;;2.70;;
31724;SDS011;18306;40.960;14.836;2022-10-16T11:56:19;2.45;;;1.83;;
31724;SDS011;18306;40.960;14.836;2022-10-16T12:01:47;2.03;;;1.88;;
31724;SDS011;18306;40.960;14.836;2022-10-16T12:04:26;7.45;;;2.72;;
31724;SDS011;18306;40.960;14.836;2022-10-16T12:08:19;4.10;;;2.42;;
31724;SDS011;18306;40.960;14.836;2022-10-16T12:10:47;6.50;;;2.22;;
31724;SDS011;18306;40.960;14.836;2022-10-16T12:13:34;2.15;;;1.65;;
31724;SDS011;18306;40.960;14.836;2022-10-16T12:16:06;3.95;;;1.92;;
31724;SDS011;18306;40.960;14.836;2022-10-16T12:18:46;11.35;;;2.58;;
31724;SDS011;18306;40.960;14.836;2022-10-16T12:21:15;3.58;;;2.47;;
31724;SDS011;18306;40.960;14.836;2022-10-16T12:26:29;11.35;;;3.05;;
31724;SDS011;18306;40.960;14.836;2022-10-16T12:32:04;11.02;;;1.90;;
31724;SDS011;18306;40.960;14.836;2022-10-16T12:34:46;2.67;;;1.83;;
31724;SDS011;18306;40.960;14.836;2022-10-16T12:37:21;3.53;;;2.25;;
31724;SDS011;18306;40.960;14.836;2022-10-16T12:39:50;7.65;;;2.30;;
31724;SDS011;18306;40.960;14.836;2022-10-16T12:44:59;10.10;;;2.42;;
31724;SDS011;18306;40.960;14.836;2022-10-16T12:49:59;2.90;;;1.92;;
31724;SDS011;18306;40.960;14.836;2022-10-16T12:55:01;2.88;;;2.22;;
31724;SDS011;18306;40.960;14.836;2022-10-16T13:00:44;5.50;;;2.60;;
31724;SDS011;18306;40.960;14.836;2022-10-16T13:18:16;4.47;;;1.92;;
31724;SDS011;18306;40.960;14.836;2022-10-16T13:24:00;3.78;;;2.08;;
31724;SDS011;18306;40.960;14.836;2022-10-16T13:26:43;8.82;;;3.10;;
31724;SDS011;18306;40.960;14.836;2022-10-16T13:29:29;4.22;;;2.55;;
31724;SDS011;18306;40.960;14.836;2022-10-16T13:31:59;3.00;;;2.05;;
31724;SDS011;18306;40.960;14.836;2022-10-16T13:34:28;3.60;;;2.30;;
31724;SDS011;18306;40.960;14.836;2022-10-16T13:36:56;6.88;;;1.88;;
31724;SDS011;18306;40.960;14.836;2022-10-16T13:39:27;6.38;;;2.67;;
31724;SDS011;18306;40.960;14.836;2022-10-16T13:44:35;6.43;;;3.22;;
31724;SDS011;18306;40.960;14.836;2022-10-16T13:47:15;6.65;;;2.78;;
31724;SDS011;18306;40.960;14.836;2022-10-16T13:50:00;5.35;;;2.83;;
31724;SDS011;18306;40.960;14.836;2022-10-16T13:55:00;9.48;;;2.92;;
31724;SDS011;18306;40.960;14.836;2022-10-16T13:57:27;4.82;;;2.60;;
31724;SDS011;18306;40.960;14.836;2022-10-16T13:59:55;3.78;;;2.35;;
31724;SDS011;18306;40.960;14.836;2022-10-16T14:02:33;6.40;;;2.92;;
31724;SDS011;18306;40.960;14.836;2022-10-16T14:05:07;6.65;;;3.08;;
31724;SDS011;18306;40.960;14.836;2022-10-16T14:07:36;5.00;;;2.38;;
31724;SDS011;18306;40.960;14.836;2022-10-16T14:10:18;3.40;;;2.38;;
31724;SDS011;18306;40.960;14.836;2022-10-16T14:12:58;6.85;;;3.60;;
31724;SDS011;18306;40.960;14.836;2022-10-16T14:15:39;5.75;;;3.63;;
31724;SDS011;18306;40.960;14.836;2022-10-16T14:18:06;4.45;;;2.72;;
31724;SDS011;18306;40.960;14.836;2022-10-16T14:20:34;7.03;;;3.10;;
31724;SDS011;18306;40.960;14.836;2022-10-16T14:23:18;4.78;;;2.30;;
31724;SDS011;18306;40.960;14.836;2022-10-16T14:26:04;2.97;;;2.25;;
31724;SDS011;18306;40.960;14.836;2022-10-16T14:28:38;4.45;;;2.38;;
31724;SDS011;18306;40.960;14.836;2022-10-16T14:39:26;4.75;;;2.53;;
31724;SDS011;18306;40.960;14.836;2022-10-16T14:44:31;5.20;;;2.25;;
31724;SDS011;18306;40.960;14.836;2022-10-16T14:47:09;6.18;;;2.70;;
31724;SDS011;18306;40.960;14.836;2022-10-16T14:49:41;6.53;;;2.22;;
31724;SDS011;18306;40.960;14.836;2022-10-16T14:52:11;4.13;;;2.28;;
31724;SDS011;18306;40.960;14.836;2022-10-16T14:54:39;4.05;;;2.35;;
31724;SDS011;18306;40.960;14.836;2022-10-16T15:00:10;12.05;;;3.00;;
31724;SDS011;18306;40.960;14.836;2022-10-16T15:02:44;4.00;;;2.30;;
31724;SDS011;18306;40.960;14.836;2022-10-16T15:05:24;2.33;;;1.48;;
31724;SDS011;18306;40.960;14.836;2022-10-16T15:07:53;3.67;;;2.35;;
31724;SDS011;18306;40.960;14.836;2022-10-16T15:10:22;2.33;;;2.03;;
31724;SDS011;18306;40.960;14.836;2022-10-16T15:12:50;5.57;;;2.83;;
31724;SDS011;18306;40.960;14.836;2022-10-16T15:17:50;5.75;;;2.00;;
31724;SDS011;18306;40.960;14.836;2022-10-16T15:20:19;4.40;;;2.40;;
31724;SDS011;18306;40.960;14.836;2022-10-16T15:28:06;4.13;;;2.42;;
31724;SDS011;18306;40.960;14.836;2022-10-16T15:30:39;5.82;;;2.90;;
31724;SDS011;18306;40.960;14.836;2022-10-16T15:35:55;9.13;;;3.20;;
31724;SDS011;18306;40.960;14.836;2022-10-16T15:38:27;5.00;;;3.60;;
31724;SDS011;18306;40.960;14.836;2022-10-16T15:40:56;7.13;;;3.20;;
31724;SDS011;18306;40.960;14.836;2022-10-16T15:43:23;20.10;;;4.03;;
31724;SDS011;18306;40.960;14.836;2022-10-16T15:46:24;8.93;;;5.30;;
31724;SDS011;18306;40.960;14.836;2022-10-16T15:48:56;9.27;;;4.82;;
31724;SDS011;18306;40.960;14.836;2022-10-16T15:51:25;7.20;;;3.85;;
31724;SDS011;18306;40.960;14.836;2022-10-16T15:54:00;6.57;;;3.30;;
31724;SDS011;18306;40.960;14.836;2022-10-16T15:56:35;6.68;;;3.33;;
31724;SDS011;18306;40.960;14.836;2022-10-16T15:59:08;6.38;;;3.65;;
31724;SDS011;18306;40.960;14.836;2022-10-16T16:06:05;7.30;;;4.43;;
31724;SDS011;18306;40.960;14.836;2022-10-16T16:08:34;9.05;;;4.47;;
31724;SDS011;18306;40.960;14.836;2022-10-16T16:13:39;9.63;;;3.92;;
31724;SDS011;18306;40.960;14.836;2022-10-16T16:16:08;8.48;;;4.20;;
31724;SDS011;18306;40.960;14.836;2022-10-16T16:18:37;5.88;;;3.28;;
31724;SDS011;18306;40.960;14.836;2022-10-16T16:21:06;8.48;;;3.75;;
31724;SDS011;18306;40.960;14.836;2022-10-16T16:23:33;10.25;;;4.03;;
31724;SDS011;18306;40.960;14.836;2022-10-16T16:30:43;5.05;;;3.90;;
31724;SDS011;18306;40.960;14.836;2022-10-16T16:33:10;7.45;;;3.92;;
31724;SDS011;18306;40.960;14.836;2022-10-16T16:35:38;9.02;;;5.38;;
31724;SDS011;18306;40.960;14.836;2022-10-16T16:38:05;10.55;;;5.68;;
31724;SDS011;18306;40.960;14.836;2022-10-16T16:40:33;17.98;;;6.85;;
31724;SDS011;18306;40.960;14.836;2022-10-16T16:43:01;11.73;;;4.93;;
31724;SDS011;18306;40.960;14.836;2022-10-16T16:45:34;11.68;;;6.18;;
31724;SDS011;18306;40.960;14.836;2022-10-16T16:48:08;10.45;;;4.15;;
31724;SDS011;18306;40.960;14.836;2022-10-16T16:50:41;8.85;;;4.55;;
31724;SDS011;18306;40.960;14.836;2022-10-16T16:53:09;9.88;;;4.75;;
31724;SDS011;18306;40.960;14.836;2022-10-16T16:55:42;7.22;;;3.78;;
31724;SDS011;18306;40.960;14.836;2022-10-16T16:58:14;9.95;;;4.32;;
31724;SDS011;18306;40.960;14.836;2022-10-16T17:00:46;16.48;;;5.32;;
31724;SDS011;18306;40.960;14.836;2022-10-16T17:03:18;8.95;;;4.13;;
31724;SDS011;18306;40.960;14.836;2022-10-16T17:09:42;7.30;;;4.13;;
31724;SDS011;18306;40.960;14.836;2022-10-16T17:12:33;11.35;;;5.43;;
31724;SDS011;18306;40.960;14.836;2022-10-16T17:15:06;12.93;;;5.97;;
31724;SDS011;18306;40.960;14.836;2022-10-16T17:17:51;5.78;;;4.10;;
31724;SDS011;18306;40.960;14.836;2022-10-16T17:20:36;10.65;;;5.18;;
31724;SDS011;18306;40.960;14.836;2022-10-16T17:23:11;14.35;;;5.70;;
31724;SDS011;18306;40.960;14.836;2022-10-16T17:25:53;15.95;;;6.53;;
31724;SDS011;18306;40.960;14.836;2022-10-16T17:28:23;10.02;;;5.75;;
31724;SDS011;18306;40.960;14.836;2022-10-16T17:31:12;8.20;;;5.72;;
31724;SDS011;18306;40.960;14.836;2022-10-16T17:33:52;18.65;;;6.10;;
31724;SDS011;18306;40.960;14.836;2022-10-16T17:36:37;7.25;;;5.15;;
31724;SDS011;18306;40.960;14.836;2022-10-16T17:39:20;10.68;;;4.60;;
31724;SDS011;18306;40.960;14.836;2022-10-16T17:41:58;9.63;;;4.85;;
31724;SDS011;18306;40.960;14.836;2022-10-16T17:44:30;12.68;;;5.95;;
31724;SDS011;18306;40.960;14.836;2022-10-16T17:46:59;10.60;;;5.43;;
31724;SDS011;18306;40.960;14.836;2022-10-16T17:49:38;8.02;;;4.32;;
31724;SDS011;18306;40.960;14.836;2022-10-16T17:52:10;11.15;;;4.50;;
31724;SDS011;18306;40.960;14.836;2022-10-16T17:54:38;8.15;;;5.47;;
31724;SDS011;18306;40.960;14.836;2022-10-16T17:57:06;12.77;;;4.68;;
31724;SDS011;18306;40.960;14.836;2022-10-16T17:59:33;13.10;;;7.20;;
31724;SDS011;18306;40.960;14.836;2022-10-16T18:02:01;10.70;;;5.80;;
31724;SDS011;18306;40.960;14.836;2022-10-16T18:04:28;7.03;;;4.65;;
31724;SDS011;18306;40.960;14.836;2022-10-16T18:06:55;8.85;;;4.72;;
31724;SDS011;18306;40.960;14.836;2022-10-16T18:09:23;6.85;;;4.45;;
31724;SDS011;18306;40.960;14.836;2022-10-16T18:11:56;9.35;;;4.97;;
31724;SDS011;18306;40.960;14.836;2022-10-16T18:14:28;8.75;;;4.22;;
31724;SDS011;18306;40.960;14.836;2022-10-16T18:16:57;10.07;;;5.10;;
31724;SDS011;18306;40.960;14.836;2022-10-16T18:19:25;18.17;;;5.93;;
31724;SDS011;18306;40.960;14.836;2022-10-16T18:21:52;15.75;;;6.38;;
31724;SDS011;18306;40.960;14.836;2022-10-16T18:24:24;10.75;;;5.88;;
31724;SDS011;18306;40.960;14.836;2022-10-16T18:26:54;8.88;;;5.13;;
31724;SDS011;18306;40.960;14.836;2022-10-16T18:29:25;13.90;;;5.72;;
31724;SDS011;18306;40.960;14.836;2022-10-16T18:31:57;10.35;;;5.88;;
31724;SDS011;18306;40.960;14.836;2022-10-16T18:34:25;16.88;;;5.80;;
31724;SDS011;18306;40.960;14.836;2022-10-16T18:36:53;9.90;;;6.30;;
31724;SDS011;18306;40.960;14.836;2022-10-16T18:46:23;13.98;;;5.65;;
31724;SDS011;18306;40.960;14.836;2022-10-16T18:48:51;10.50;;;5.32;;
31724;SDS011;18306;40.960;14.836;2022-10-16T18:51:27;8.23;;;4.88;;
31724;SDS011;18306;40.960;14.836;2022-10-16T18:54:02;12.70;;;4.75;;
31724;SDS011;18306;40.960;14.836;2022-10-16T18:56:35;6.85;;;4.80;;
31724;SDS011;18306;40.960;14.836;2022-10-16T18:59:18;9.73;;;5.40;;
31724;SDS011;18306;40.960;14.836;2022-10-16T19:01:50;12.05;;;7.13;;
31724;SDS011;18306;40.960;14.836;2022-10-16T19:04:35;18.30;;;6.38;;
31724;SDS011;18306;40.960;14.836;2022-10-16T19:07:04;11.60;;;5.47;;
31724;SDS011;18306;40.960;14.836;2022-10-16T19:09:35;9.27;;;5.07;;
31724;SDS011;18306;40.960;14.836;2022-10-16T19:12:15;9.10;;;5.20;;
31724;SDS011;18306;40.960;14.836;2022-10-16T19:14:46;12.55;;;6.50;;
31724;SDS011;18306;40.960;14.836;2022-10-16T19:17:18;11.60;;;6.35;;
31724;SDS011;18306;40.960;14.836;2022-10-16T19:19:57;8.45;;;5.88;;
31724;SDS011;18306;40.960;14.836;2022-10-16T19:22:27;15.45;;;5.78;;
31724;SDS011;18306;40.960;14.836;2022-10-16T19:25:21;11.90;;;6.25;;
31724;SDS011;18306;40.960;14.836;2022-10-16T19:31:03;15.57;;;6.85;;
31724;SDS011;18306;40.960;14.836;2022-10-16T19:33:32;12.45;;;5.38;;
31724;SDS011;18306;40.960;14.836;2022-10-16T19:36:11;9.07;;;5.75;;
31724;SDS011;18306;40.960;14.836;2022-10-16T19:38:45;20.00;;;6.32;;
31724;SDS011;18306;40.960;14.836;2022-10-16T19:41:17;7.50;;;5.22;;
31724;SDS011;18306;40.960;14.836;2022-10-16T19:43:45;11.57;;;6.30;;
31724;SDS011;18306;40.960;14.836;2022-10-16T19:46:19;9.95;;;5.35;;
31724;SDS011;18306;40.960;14.836;2022-10-16T19:48:54;9.43;;;6.30;;
31724;SDS011;18306;40.960;14.836;2022-10-16T19:51:25;12.63;;;5.95;;
31724;SDS011;18306;40.960;14.836;2022-10-16T19:54:02;11.50;;;6.80;;
31724;SDS011;18306;40.960;14.836;2022-10-16T19:56:34;10.02;;;5.93;;
31724;SDS011;18306;40.960;14.836;2022-10-16T19:59:03;14.10;;;6.68;;
31724;SDS011;18306;40.960;14.836;2022-10-16T20:01:32;14.95;;;7.47;;
31724;SDS011;18306;40.960;14.836;2022-10-16T20:04:00;12.20;;;5.80;;
31724;SDS011;18306;40.960;14.836;2022-10-16T20:06:29;10.32;;;5.93;;
31724;SDS011;18306;40.960;14.836;2022-10-16T20:08:58;11.02;;;6.15;;
31724;SDS011;18306;40.960;14.836;2022-10-16T20:11:27;12.35;;;6.35;;
31724;SDS011;18306;40.960;14.836;2022-10-16T20:13:59;12.30;;;6.93;;
31724;SDS011;18306;40.960;14.836;2022-10-16T20:16:36;10.00;;;5.80;;
31724;SDS011;18306;40.960;14.836;2022-10-16T20:19:08;11.77;;;6.55;;
31724;SDS011;18306;40.960;14.836;2022-10-16T20:21:37;11.40;;;5.45;;
31724;SDS011;18306;40.960;14.836;2022-10-16T20:24:10;14.63;;;6.18;;
31724;SDS011;18306;40.960;14.836;2022-10-16T20:26:49;12.43;;;6.70;;
31724;SDS011;18306;40.960;14.836;2022-10-16T20:29:18;11.88;;;7.60;;
31724;SDS011;18306;40.960;14.836;2022-10-16T20:31:48;12.98;;;6.78;;
31724;SDS011;18306;40.960;14.836;2022-10-16T20:34:19;13.18;;;7.35;;
31724;SDS011;18306;40.960;14.836;2022-10-16T20:36:54;13.20;;;6.70;;
31724;SDS011;18306;40.960;14.836;2022-10-16T20:39:22;14.80;;;7.03;;
31724;SDS011;18306;40.960;14.836;2022-10-16T20:41:49;16.55;;;7.07;;
31724;SDS011;18306;40.960;14.836;2022-10-16T20:44:21;10.45;;;6.18;;
31724;SDS011;18306;40.960;14.836;2022-10-16T20:46:52;11.45;;;6.90;;
31724;SDS011;18306;40.960;14.836;2022-10-16T20:49:22;12.38;;;7.07;;
31724;SDS011;18306;40.960;14.836;2022-10-16T20:51:51;12.00;;;6.57;;
31724;SDS011;18306;40.960;14.836;2022-10-16T20:54:21;14.20;;;7.72;;
31724;SDS011;18306;40.960;14.836;2022-10-16T20:56:54;15.88;;;6.55;;
31724;SDS011;18306;40.960;14.836;2022-10-16T20:59:27;7.50;;;5.90;;
31724;SDS011;18306;40.960;14.836;2022-10-16T21:02:03;12.38;;;5.45;;
31724;SDS011;18306;40.960;14.836;2022-10-16T21:04:33;11.90;;;6.32;;
31724;SDS011;18306;40.960;14.836;2022-10-16T21:07:03;16.05;;;6.70;;
31724;SDS011;18306;40.960;14.836;2022-10-16T21:09:31;9.13;;;5.78;;
31724;SDS011;18306;40.960;14.836;2022-10-16T21:12:04;13.70;;;7.03;;
31724;SDS011;18306;40.960;14.836;2022-10-16T21:14:33;10.10;;;5.90;;
31724;SDS011;18306;40.960;14.836;2022-10-16T21:17:01;13.95;;;5.90;;
31724;SDS011;18306;40.960;14.836;2022-10-16T21:19:30;12.20;;;6.32;;
31724;SDS011;18306;40.960;14.836;2022-10-16T21:22:00;7.75;;;5.63;;
31724;SDS011;18306;40.960;14.836;2022-10-16T21:24:31;13.73;;;5.82;;
31724;SDS011;18306;40.960;14.836;2022-10-16T21:27:03;14.48;;;6.65;;
31724;SDS011;18306;40.960;14.836;2022-10-16T21:29:31;12.25;;;5.30;;
31724;SDS011;18306;40.960;14.836;2022-10-16T21:32:03;7.18;;;5.07;;
31724;SDS011;18306;40.960;14.836;2022-10-16T21:34:33;9.57;;;6.10;;
31724;SDS011;18306;40.960;14.836;2022-10-16T21:37:01;9.50;;;5.50;;
